createdAt,value
2022-10-11T00:01:00.676Z,17.10
2022-10-11T00:03:28.962Z,17.10
2022-10-11T00:05:57.365Z,17.10
2022-10-11T00:08:25.560Z,17.10
2022-10-11T00:11:03.837Z,17.10
2022-10-11T00:13:32.589Z,17.20
2022-10-11T00:16:00.791Z,17.20
2022-10-11T00:18:29.130Z,17.20
2022-10-11T00:21:05.354Z,17.10
2022-10-11T00:23:34.099Z,17.10
2022-10-11T00:26:05.890Z,17.10
2022-10-11T00:28:35.148Z,17.20
2022-10-11T00:31:05.412Z,17.10
2022-10-11T00:33:33.908Z,17.10
2022-10-11T00:36:02.566Z,17.20
2022-10-11T00:38:32.057Z,17.20
2022-10-11T00:41:01.264Z,17.30
2022-10-11T00:43:32.527Z,17.30
2022-10-11T00:46:08.524Z,17.30
2022-10-11T00:48:41.936Z,17.30
2022-10-11T00:51:17.802Z,17.30
2022-10-11T00:53:48.244Z,17.20
2022-10-11T00:56:21.986Z,17.30
2022-10-11T00:58:52.670Z,17.30
2022-10-11T01:01:20.931Z,17.30
2022-10-11T01:08:15.962Z,17.30
2022-10-11T01:10:44.219Z,17.30
2022-10-11T01:13:22.600Z,17.40
2022-10-11T01:15:57.827Z,17.40
2022-10-11T01:18:31.772Z,17.40
2022-10-11T01:21:08.159Z,17.40
2022-10-11T01:23:58.064Z,17.40
2022-10-11T01:27:12.303Z,17.10
2022-10-11T01:29:50.381Z,17.30
2022-10-11T01:32:25.653Z,17.30
2022-10-11T01:34:59.672Z,17.30
2022-10-11T01:37:34.361Z,17.40
2022-10-11T01:40:07.341Z,17.40
2022-10-11T01:42:37.650Z,17.30
2022-10-11T01:45:08.684Z,17.40
2022-10-11T01:47:39.148Z,16.80
2022-10-11T01:50:09.127Z,16.30
2022-10-11T01:52:44.523Z,16.60
2022-10-11T01:55:25.075Z,16.20
2022-10-11T01:58:08.229Z,16.30
2022-10-11T02:00:45.444Z,16.60
2022-10-11T02:03:23.434Z,16.70
2022-10-11T02:05:56.882Z,16.90
2022-10-11T02:08:33.151Z,17.10
2022-10-11T02:11:06.525Z,16.90
2022-10-11T02:13:39.338Z,17.00
2022-10-11T02:16:12.611Z,17.10
2022-10-11T02:18:47.667Z,17.20
2022-10-11T02:21:19.932Z,17.20
2022-10-11T02:23:52.893Z,17.10
2022-10-11T02:26:22.434Z,17.20
2022-10-11T02:28:52.910Z,17.20
2022-10-11T02:31:23.040Z,17.20
2022-10-11T02:33:58.320Z,17.20
2022-10-11T02:36:32.143Z,17.20
2022-10-11T02:39:06.586Z,17.20
2022-10-11T02:41:39.560Z,17.20
2022-10-11T02:44:10.795Z,17.20
2022-10-11T02:46:39.618Z,17.20
2022-10-11T02:49:09.802Z,17.10
2022-10-11T02:51:37.983Z,17.10
2022-10-11T02:54:06.830Z,17.10
2022-10-11T02:56:35.180Z,17.10
2022-10-11T02:59:03.304Z,17.00
2022-10-11T03:01:31.539Z,16.90
2022-10-11T03:03:59.642Z,16.80
2022-10-11T03:06:29.343Z,16.40
2022-10-11T03:08:57.487Z,16.40
2022-10-11T03:11:25.947Z,16.60
2022-10-11T03:13:54.172Z,16.50
2022-10-11T03:16:22.527Z,16.70
2022-10-11T03:18:50.715Z,16.70
2022-10-11T03:21:18.870Z,16.70
2022-10-11T03:23:48.293Z,16.70
2022-10-11T03:26:16.417Z,16.70
2022-10-11T03:28:44.706Z,16.70
2022-10-11T03:31:13.493Z,16.70
2022-10-11T03:33:41.874Z,16.60
2022-10-11T03:36:10.477Z,16.60
2022-10-11T03:38:38.629Z,16.60
2022-10-11T03:41:08.355Z,16.60
2022-10-11T03:43:36.608Z,16.50
2022-10-11T03:46:05.101Z,16.50
2022-10-11T03:48:34.906Z,16.60
2022-10-11T03:51:03.043Z,16.50
2022-10-11T03:53:31.478Z,16.50
2022-10-11T03:56:02.373Z,16.60
2022-10-11T03:58:34.416Z,16.50
2022-10-11T04:01:02.546Z,16.60
2022-10-11T04:03:30.931Z,16.60
2022-10-11T04:05:59.086Z,16.30
2022-10-11T04:08:27.689Z,16.20
2022-10-11T04:10:55.819Z,16.40
2022-10-11T04:13:24.048Z,16.00
2022-10-11T04:15:53.750Z,15.80
2022-10-11T04:18:21.884Z,16.00
2022-10-11T04:20:50.161Z,16.20
2022-10-11T04:23:18.263Z,16.30
2022-10-11T04:25:48.258Z,16.20
2022-10-11T04:28:16.417Z,16.30
2022-10-11T04:30:44.622Z,16.40
2022-10-11T04:33:14.184Z,16.40
2022-10-11T04:35:42.360Z,16.30
2022-10-11T04:38:10.456Z,16.30
2022-10-11T04:40:39.273Z,16.20
2022-10-11T04:43:08.228Z,16.20
2022-10-11T04:45:36.618Z,16.10
2022-10-11T04:48:04.887Z,16.20
2022-10-11T04:50:34.816Z,16.30
2022-10-11T04:53:03.171Z,16.30
2022-10-11T04:55:31.691Z,16.30
2022-10-11T04:58:03.607Z,16.20
2022-10-11T05:00:32.247Z,16.00
2022-10-11T05:03:00.424Z,16.00
2022-10-11T05:05:29.138Z,16.10
2022-10-11T05:07:58.930Z,16.10
2022-10-11T05:10:27.445Z,16.00
2022-10-11T05:12:55.741Z,16.00
2022-10-11T05:15:23.975Z,16.00
2022-10-11T05:17:52.519Z,16.10
2022-10-11T05:20:20.814Z,16.00
2022-10-11T05:22:48.971Z,16.00
2022-10-11T05:25:18.825Z,15.80
2022-10-11T05:27:47.176Z,15.80
2022-10-11T05:30:15.570Z,15.70
2022-10-11T05:32:43.751Z,15.70
2022-10-11T05:35:12.176Z,15.70
2022-10-11T05:37:41.820Z,15.60
2022-10-11T05:40:11.605Z,15.50
2022-10-11T05:42:41.351Z,15.40
2022-10-11T05:45:10.311Z,15.20
2022-10-11T05:47:38.555Z,15.00
2022-10-11T05:50:07.964Z,14.40
2022-10-11T05:52:36.084Z,13.90
2022-10-11T05:55:04.793Z,13.50
2022-10-11T05:57:33.293Z,13.50
2022-10-11T06:00:02.935Z,13.60
2022-10-11T06:02:40.595Z,13.40
2022-10-11T06:05:09.272Z,13.40
2022-10-11T06:07:37.778Z,13.40
2022-10-11T06:10:07.021Z,13.50
2022-10-11T06:12:35.404Z,13.50
2022-10-11T06:15:06.317Z,13.40
2022-10-11T06:17:34.410Z,13.30
2022-10-11T06:20:02.559Z,13.30
2022-10-11T06:22:30.842Z,13.20
2022-10-11T06:24:59.138Z,13.20
2022-10-11T06:27:27.386Z,13.20
2022-10-11T06:29:56.569Z,13.20
2022-10-11T06:32:26.409Z,13.20
2022-10-11T06:34:54.533Z,13.30
2022-10-11T06:37:22.605Z,13.30
2022-10-11T06:39:51.597Z,13.30
2022-10-11T06:42:19.790Z,13.30
2022-10-11T06:44:48.186Z,13.30
2022-10-11T06:47:16.306Z,13.20
2022-10-11T06:49:46.021Z,13.30
2022-10-11T06:52:14.101Z,13.40
2022-10-11T06:54:44.888Z,13.50
2022-10-11T06:57:13.385Z,13.60
2022-10-11T06:59:41.786Z,13.60
2022-10-11T07:02:11.184Z,13.70
2022-10-11T07:04:39.533Z,13.60
2022-10-11T07:07:09.173Z,13.50
2022-10-11T07:09:37.898Z,13.40
2022-10-11T07:12:06.592Z,13.40
2022-10-11T07:14:34.911Z,13.40
2022-10-11T07:17:03.229Z,13.40
2022-10-11T07:19:31.616Z,13.50
2022-10-11T07:21:59.970Z,13.40
2022-10-11T07:24:29.635Z,13.40
2022-10-11T07:26:57.675Z,13.40
2022-10-11T07:29:25.834Z,13.40
2022-10-11T07:31:53.969Z,13.50
2022-10-11T07:34:22.915Z,13.60
2022-10-11T07:36:51.345Z,13.70
2022-10-11T07:39:19.623Z,13.80
2022-10-11T07:41:49.111Z,14.00
2022-10-11T07:44:17.531Z,14.20
2022-10-11T07:46:45.802Z,14.20
2022-10-11T07:49:13.966Z,14.20
2022-10-11T07:51:42.234Z,14.00
2022-10-11T07:54:10.459Z,14.00
2022-10-11T07:56:40.052Z,14.00
2022-10-11T07:59:09.940Z,13.90
2022-10-11T08:01:38.548Z,13.90
2022-10-11T08:04:06.849Z,13.90
2022-10-11T08:06:36.586Z,14.00
2022-10-11T08:09:05.673Z,14.00
2022-10-11T08:11:36.179Z,13.90
2022-10-11T08:14:09.066Z,13.90
2022-10-11T08:16:39.987Z,14.00
2022-10-11T08:19:08.714Z,14.10
2022-10-11T08:21:37.169Z,14.10
2022-10-11T08:24:06.514Z,14.00
2022-10-11T08:26:35.445Z,14.00
2022-10-11T08:29:04.433Z,14.10
2022-10-11T08:31:33.755Z,14.10
2022-10-11T08:34:04.065Z,14.10
2022-10-11T08:36:32.346Z,14.00
2022-10-11T08:39:01.917Z,14.10
2022-10-11T08:41:37.319Z,14.00
2022-10-11T08:44:41.421Z,13.90
2022-10-11T08:47:22.514Z,13.80
2022-10-11T08:49:52.695Z,13.80
2022-10-11T08:52:24.176Z,13.80
2022-10-11T08:54:57.166Z,13.80
2022-10-11T08:57:28.804Z,13.70
2022-10-11T08:59:59.888Z,13.70
2022-10-11T09:03:02.953Z,13.80
2022-10-11T09:05:35.408Z,13.80
2022-10-11T09:08:09.490Z,13.80
2022-10-11T09:10:52.432Z,13.70
2022-10-11T09:13:35.828Z,13.70
2022-10-11T09:16:14.728Z,13.70
2022-10-11T09:18:59.173Z,13.70
2022-10-11T09:21:40.275Z,13.70
2022-10-11T09:24:45.646Z,13.70
2022-10-11T09:27:50.314Z,13.80
2022-10-11T09:30:21.770Z,13.70
2022-10-11T09:32:59.900Z,13.70
2022-10-11T09:35:40.107Z,13.80
2022-10-11T09:38:19.541Z,13.80
2022-10-11T09:41:00.272Z,13.80
2022-10-11T09:43:28.764Z,13.80
2022-10-11T09:45:56.951Z,13.70
2022-10-11T09:48:28.785Z,13.70
2022-10-11T09:51:03.692Z,13.70
2022-10-11T09:53:57.159Z,13.80
2022-10-11T09:56:28.311Z,13.80
2022-10-11T09:59:25.576Z,13.90
2022-10-11T10:02:23.182Z,14.00
2022-10-11T10:05:14.296Z,13.90
2022-10-11T10:08:04.121Z,13.90
2022-10-11T10:10:39.637Z,13.90
2022-10-11T10:13:20.728Z,14.00
2022-10-11T10:15:50.831Z,14.00
2022-10-11T10:18:24.534Z,14.10
2022-10-11T10:20:54.870Z,14.10
2022-10-11T10:23:27.553Z,14.20
2022-10-11T10:29:00.896Z,14.30
2022-10-11T10:31:49.528Z,14.50
2022-10-11T10:34:28.716Z,14.50
2022-10-11T10:36:59.944Z,14.60
2022-10-11T10:39:34.862Z,14.70
2022-10-11T10:42:06.259Z,14.80
2022-10-11T10:44:35.938Z,14.90
2022-10-11T10:47:10.741Z,15.00
2022-10-11T10:50:00.354Z,15.00
2022-10-11T10:52:49.695Z,15.10
2022-10-11T10:55:26.613Z,15.30
2022-10-11T10:58:09.641Z,15.30
2022-10-11T11:00:47.047Z,15.40
2022-10-11T11:03:22.869Z,15.40
2022-10-11T11:06:00.999Z,15.30
2022-10-11T11:08:48.351Z,15.30
2022-10-11T11:11:31.332Z,15.30
2022-10-11T11:14:05.046Z,15.30
2022-10-11T11:16:44.686Z,15.40
2022-10-11T11:19:25.487Z,15.40
2022-10-11T11:22:00.543Z,15.40
2022-10-11T11:24:39.848Z,15.40
2022-10-11T11:27:17.234Z,15.50
2022-10-11T11:29:55.726Z,15.50
2022-10-11T11:32:35.343Z,15.50
2022-10-11T11:35:09.540Z,15.60
2022-10-11T11:37:40.322Z,15.50
2022-10-11T11:40:17.360Z,15.60
2022-10-11T11:42:49.188Z,15.50
2022-10-11T11:45:22.762Z,15.50
2022-10-11T11:47:56.291Z,15.50
2022-10-11T11:50:27.925Z,15.60
2022-10-11T11:53:00.767Z,15.50
2022-10-11T11:55:33.808Z,15.60
2022-10-11T11:58:14.324Z,15.60
2022-10-11T12:00:50.102Z,15.60
2022-10-11T12:03:26.505Z,15.70
2022-10-11T12:06:29.084Z,15.80
2022-10-11T12:09:03.826Z,15.80
2022-10-11T12:11:55.560Z,16.20
2022-10-11T12:14:35.623Z,16.20
2022-10-11T12:17:17.213Z,16.10
2022-10-11T12:20:10.267Z,16.00
2022-10-11T12:22:58.382Z,16.10
2022-10-11T12:25:44.786Z,16.00
2022-10-11T12:29:01.886Z,16.00
2022-10-11T12:31:32.848Z,16.10
2022-10-11T12:34:37.022Z,16.10
2022-10-11T12:37:42.663Z,15.90
2022-10-11T12:40:41.717Z,15.90
2022-10-11T12:43:29.488Z,15.90
2022-10-11T12:45:57.871Z,15.90
2022-10-11T12:48:46.201Z,15.90
2022-10-11T12:51:37.814Z,16.00
2022-10-11T12:54:33.330Z,16.20
2022-10-11T12:57:30.497Z,16.10
2022-10-11T13:00:17.608Z,16.00
2022-10-11T13:02:46.085Z,16.20
2022-10-11T13:05:22.658Z,16.00
2022-10-11T13:07:51.962Z,16.10
2022-10-11T13:10:25.613Z,16.10
2022-10-11T13:12:56.662Z,16.10
2022-10-11T13:15:25.510Z,16.10
2022-10-11T13:18:00.255Z,16.10
2022-10-11T13:20:31.586Z,16.10
2022-10-11T13:22:59.940Z,16.20
2022-10-11T13:25:30.410Z,16.20
2022-10-11T13:28:00.389Z,16.20
2022-10-11T13:30:31.768Z,16.20
2022-10-11T13:33:01.131Z,16.20
2022-10-11T13:35:33.802Z,16.20
2022-10-11T13:38:02.570Z,16.20
2022-10-11T13:40:31.982Z,16.20
2022-10-11T13:43:02.319Z,16.20
2022-10-11T13:45:31.731Z,16.20
2022-10-11T13:48:00.033Z,16.20
2022-10-11T13:50:32.400Z,16.20
2022-10-11T13:53:03.097Z,16.20
2022-10-11T13:55:34.936Z,16.20
2022-10-11T13:58:16.280Z,16.20
2022-10-11T14:00:55.978Z,16.20
2022-10-11T14:03:27.786Z,16.20
2022-10-11T14:05:58.343Z,16.20
2022-10-11T14:08:35.424Z,16.20
2022-10-11T14:11:06.464Z,16.20
2022-10-11T14:13:39.255Z,16.20
2022-10-11T14:16:10.167Z,16.20
2022-10-11T14:18:49.107Z,16.20
2022-10-11T14:21:32.775Z,16.20
2022-10-11T14:24:02.488Z,16.30
2022-10-11T14:26:34.861Z,16.20
2022-10-11T14:29:09.223Z,16.20
2022-10-11T14:31:41.672Z,16.10
2022-10-11T14:34:17.882Z,16.20
2022-10-11T14:36:45.948Z,16.10
2022-10-11T14:39:17.660Z,16.40
2022-10-11T14:41:46.176Z,16.20
2022-10-11T14:44:16.734Z,16.10
2022-10-11T14:46:45.899Z,16.10
2022-10-11T14:49:15.974Z,16.10
2022-10-11T14:51:45.551Z,16.00
2022-10-11T14:54:14.657Z,16.10
2022-10-11T15:02:36.616Z,16.00
2022-10-11T15:05:05.105Z,16.10
2022-10-11T15:07:33.349Z,16.00
2022-10-11T15:10:01.641Z,16.00
2022-10-11T15:12:29.767Z,16.10
2022-10-11T15:14:57.788Z,16.00
2022-10-11T15:17:25.849Z,16.10
2022-10-11T15:19:55.725Z,16.10
2022-10-11T15:22:23.727Z,16.10
2022-10-11T15:24:51.985Z,16.00
2022-10-11T15:27:20.008Z,16.00
2022-10-11T15:29:48.244Z,16.00
2022-10-11T15:32:16.320Z,16.10
2022-10-11T15:34:44.429Z,16.00
2022-10-11T15:37:14.056Z,15.90
2022-10-11T15:39:42.233Z,16.00
2022-10-11T15:42:10.443Z,16.00
2022-10-11T15:44:38.555Z,16.00
2022-10-11T15:47:06.900Z,15.90
2022-10-11T15:49:35.496Z,15.90
2022-10-11T15:52:03.629Z,15.90
2022-10-11T15:54:33.248Z,15.80
2022-10-11T15:57:01.513Z,15.80
2022-10-11T15:59:29.585Z,15.80
2022-10-11T16:01:58.555Z,15.80
2022-10-11T16:04:26.744Z,15.70
2022-10-11T16:06:54.815Z,15.80
2022-10-11T16:09:22.915Z,15.90
2022-10-11T16:11:52.367Z,15.90
2022-10-11T16:14:20.496Z,15.90
2022-10-11T16:16:48.538Z,15.90
2022-10-11T16:19:16.699Z,15.90
2022-10-11T16:21:44.764Z,15.90
2022-10-11T16:24:12.927Z,15.90
2022-10-11T16:26:42.024Z,16.00
2022-10-11T16:29:11.544Z,16.00
2022-10-11T16:31:40.005Z,15.90
2022-10-11T16:34:08.315Z,15.90
2022-10-11T16:36:40.141Z,15.90
2022-10-11T16:39:13.042Z,15.90
2022-10-11T16:41:41.760Z,15.90
2022-10-11T16:44:13.830Z,16.00
2022-10-11T16:46:42.419Z,16.10
2022-10-11T16:49:10.585Z,16.20
2022-10-11T16:51:38.678Z,16.30
2022-10-11T16:54:07.255Z,16.50
2022-10-11T16:56:39.695Z,16.60
2022-10-11T16:59:08.695Z,16.80
2022-10-11T17:01:38.378Z,16.80
2022-10-11T17:04:06.752Z,16.90
2022-10-11T17:06:35.205Z,16.70
2022-10-11T17:09:03.906Z,16.70
2022-10-11T17:11:32.087Z,16.80
2022-10-11T17:14:02.073Z,16.90
2022-10-11T17:16:30.480Z,16.90
2022-10-11T17:19:00.167Z,17.00
2022-10-11T17:21:28.540Z,16.90
2022-10-11T17:23:56.771Z,17.00
2022-10-11T17:26:27.776Z,17.00
2022-10-11T17:28:56.620Z,17.00
2022-10-11T17:31:25.727Z,17.00
2022-10-11T17:33:54.832Z,17.00
2022-10-11T17:36:27.785Z,17.00
2022-10-11T17:38:55.963Z,17.00
2022-10-11T17:41:28.142Z,16.90
2022-10-11T17:43:59.474Z,16.90
2022-10-11T17:46:32.305Z,16.90
2022-10-11T17:49:01.021Z,16.80
2022-10-11T17:51:31.849Z,16.80
2022-10-11T17:54:00.221Z,16.80
2022-10-11T17:56:33.648Z,16.80
2022-10-11T17:59:05.003Z,16.80
2022-10-11T18:01:33.180Z,16.70
2022-10-11T18:04:03.345Z,16.60
2022-10-11T18:06:35.737Z,16.40
2022-10-11T18:09:05.235Z,16.00
2022-10-11T18:11:33.472Z,15.70
2022-10-11T18:14:02.044Z,15.80
2022-10-11T18:16:32.096Z,16.10
2022-10-11T18:19:00.412Z,16.20
2022-10-11T18:21:34.314Z,16.20
2022-10-11T18:24:07.704Z,16.10
2022-10-11T18:26:35.872Z,16.00
2022-10-11T18:29:04.810Z,16.10
2022-10-11T18:31:35.146Z,16.20
2022-10-11T18:34:04.371Z,16.30
2022-10-11T18:36:33.771Z,16.30
2022-10-11T18:39:07.920Z,16.40
2022-10-11T18:41:36.912Z,16.30
2022-10-11T18:44:07.211Z,16.40
2022-10-11T18:46:36.090Z,16.30
2022-10-11T18:49:04.687Z,16.20
2022-10-11T18:51:34.551Z,16.20
2022-10-11T18:54:04.497Z,16.10
2022-10-11T18:56:34.611Z,16.20
2022-10-11T18:59:02.828Z,16.20
2022-10-11T19:01:32.497Z,16.00
2022-10-11T19:04:02.338Z,16.10
2022-10-11T19:06:32.835Z,16.10
2022-10-11T19:09:03.220Z,16.00
2022-10-11T19:11:33.035Z,15.90
2022-10-11T19:14:03.293Z,15.60
2022-10-11T19:16:31.717Z,15.20
2022-10-11T19:18:59.823Z,15.10
2022-10-11T19:21:28.148Z,14.90
2022-10-11T19:23:57.388Z,14.80
2022-10-11T19:26:28.950Z,14.80
2022-10-11T19:29:00.660Z,14.60
2022-10-11T19:31:29.632Z,14.60
2022-10-11T19:33:58.717Z,14.60
2022-10-11T19:36:27.507Z,14.90
2022-10-11T19:38:57.372Z,15.20
2022-10-11T19:41:27.418Z,15.40
2022-10-11T19:43:58.045Z,15.40
2022-10-11T19:49:20.495Z,14.90
2022-10-11T19:51:48.734Z,14.60
2022-10-11T19:54:17.160Z,14.60
2022-10-11T19:56:46.028Z,14.70
2022-10-11T19:59:16.962Z,14.70
2022-10-11T20:01:51.924Z,14.60
2022-10-11T20:07:10.123Z,14.30
2022-10-11T20:09:38.255Z,14.00
2022-10-11T20:12:06.686Z,14.00
2022-10-11T20:14:34.823Z,13.90
2022-10-11T20:17:04.413Z,13.90
2022-10-11T20:19:32.569Z,14.00
2022-10-11T20:22:01.169Z,14.00
2022-10-11T20:24:33.515Z,14.30
2022-10-11T20:27:03.125Z,14.40
2022-10-11T20:29:31.514Z,14.30
2022-10-11T20:32:00.266Z,14.20
2022-10-11T20:34:30.651Z,14.10
2022-10-11T20:36:59.355Z,13.80
2022-10-11T20:39:27.871Z,13.70
2022-10-11T20:41:56.008Z,13.40
2022-10-11T20:44:24.201Z,13.30
2022-10-11T20:46:52.292Z,13.20
2022-10-11T20:49:20.902Z,13.20
2022-10-11T20:51:50.640Z,13.30
2022-10-11T20:54:18.780Z,13.20
2022-10-11T20:56:46.904Z,13.20
2022-10-11T20:59:14.982Z,13.10
2022-10-11T21:01:44.178Z,13.10
2022-10-11T21:04:19.890Z,13.00
2022-10-11T21:06:49.957Z,12.90
2022-10-11T21:09:19.167Z,12.90
2022-10-11T21:11:47.537Z,12.80
2022-10-11T21:14:15.934Z,12.90
2022-10-11T21:16:44.221Z,12.90
2022-10-11T21:19:16.026Z,12.80
2022-10-11T21:21:50.965Z,12.80
2022-10-11T21:24:23.157Z,12.80
2022-10-11T21:26:51.301Z,13.10
2022-10-11T21:29:19.827Z,13.10
2022-10-11T21:31:47.943Z,13.10
2022-10-11T21:34:16.216Z,13.00
2022-10-11T21:36:44.645Z,13.00
2022-10-11T21:39:12.948Z,12.90
2022-10-11T21:41:43.048Z,13.00
2022-10-11T21:44:11.716Z,13.20
2022-10-11T21:47:05.499Z,13.10
2022-10-11T21:49:28.226Z,12.80
2022-10-11T21:51:56.635Z,12.80
2022-10-11T21:54:24.787Z,13.00
2022-10-11T21:56:54.668Z,13.20
2022-10-11T21:59:22.740Z,13.30
2022-10-11T22:01:50.966Z,13.50
2022-10-11T22:04:19.134Z,13.60
2022-10-11T22:06:47.299Z,13.80
2022-10-11T22:09:15.467Z,13.90
2022-10-11T22:11:43.623Z,13.90
2022-10-11T22:14:13.151Z,13.90
2022-10-11T22:16:41.300Z,13.80
2022-10-11T22:19:09.510Z,13.70
2022-10-11T22:21:42.563Z,13.80
2022-10-11T22:24:13.029Z,13.90
2022-10-11T22:26:41.250Z,14.00
2022-10-11T22:29:09.432Z,13.90
2022-10-11T22:31:39.080Z,13.90
2022-10-11T22:34:07.260Z,14.00
2022-10-11T22:36:35.368Z,13.90
2022-10-11T22:39:07.929Z,13.80
2022-10-11T22:41:36.892Z,13.90
2022-10-11T22:44:05.753Z,13.50
2022-10-11T22:46:33.864Z,13.50
2022-10-11T22:49:04.150Z,13.60
2022-10-11T22:51:32.525Z,13.70
2022-10-11T22:54:00.654Z,13.90
2022-10-11T22:56:28.815Z,13.90
2022-10-11T22:58:56.957Z,14.00
2022-10-11T23:01:25.267Z,14.00
2022-10-11T23:03:54.016Z,14.00
2022-10-11T23:06:23.747Z,13.90
2022-10-11T23:08:52.084Z,14.00
2022-10-11T23:11:20.322Z,14.00
2022-10-11T23:13:48.704Z,13.90
2022-10-11T23:16:16.938Z,13.80
2022-10-11T23:18:45.058Z,13.90
2022-10-11T23:21:13.267Z,13.90
2022-10-11T23:23:42.806Z,13.90
2022-10-11T23:26:14.262Z,14.00
2022-10-11T23:28:43.130Z,14.00
2022-10-11T23:31:13.458Z,14.10
2022-10-11T23:33:41.901Z,14.00
2022-10-11T23:36:15.216Z,14.00
2022-10-11T23:38:45.071Z,14.00
2022-10-11T23:41:13.283Z,14.00
2022-10-11T23:43:41.570Z,14.00
2022-10-11T23:46:09.832Z,14.00
2022-10-11T23:48:37.918Z,13.70
2022-10-11T23:51:06.324Z,13.80
2022-10-11T23:53:36.685Z,13.90
2022-10-11T23:56:07.383Z,13.80
2022-10-11T23:58:35.528Z,13.80
